Time;durP1;ratioP1;P1;durP2;ratioP2;P2;SDS_P1;SDS_P2;PMS_P1;PMS_P2;Temp;Humidity;BMP_temperature;BMP_pressure;BME280_temperature;BME280_humidity;BME280_pressure;Samples;Min_cycle;Max_cycle;Signal;HPM_P1;HPM_P2
2021/10/16 00:00:11;;;;;;;;;;;;;;;22.35;30.51;97581.63;5011660;28;988;-77
2021/10/16 00:02:37;;;;;;;;;;;;;;;22.44;30.44;97583.75;5057685;28;914;-76
2021/10/16 00:05:03;;;;;;;;;;;;;;;22.41;30.32;97579.00;5057573;28;905;-76
2021/10/16 00:07:28;;;;;;;;;;;;;;;22.29;30.70;97572.16;5022616;28;974;-77
2021/10/16 00:09:54;;;;;;;;;;;;;;;22.31;30.76;97569.63;5057315;28;869;-77
2021/10/16 00:12:19;;;;;;;;;;;;;;;22.36;30.33;97560.53;5057894;28;1977;-77
2021/10/16 00:14:44;;;;;;;;;;;;;;;22.49;30.49;97565.38;5057366;28;867;-77
2021/10/16 00:17:10;;;;;;;;;;;;;;;22.14;31.54;97565.41;5057722;28;1049;-77
2021/10/16 00:19:37;;;;;;;;;;;;;;;22.27;31.57;97568.97;5057401;28;879;-77
2021/10/16 00:22:03;;;;;;;;;;;;;;;22.17;31.76;97567.31;5057675;28;1105;-77
2021/10/16 00:24:30;;;;;;;;;;;;;;;22.57;31.08;97563.84;5015428;28;1011;-77
2021/10/16 00:26:55;;;;;;;;;;;;;;;22.58;30.76;97559.75;5015673;28;933;-77
2021/10/16 00:29:21;;;;;;;;;;;;;;;23.12;30.07;97550.00;5014967;28;940;-77
2021/10/16 00:31:46;;;;;;;;;;;;;;;23.09;30.10;97548.09;4995648;28;1985;-76
2021/10/16 00:34:12;;;;;;;;;;;;;;;22.66;31.06;97555.41;4975859;28;1328;-76
2021/10/16 00:36:38;;;;;;;;;;;;;;;22.80;30.36;97559.75;4975974;28;1003;-77
2021/10/16 00:39:03;;;;;;;;;;;;;;;23.12;29.70;97564.19;4975993;28;990;-77
2021/10/16 00:41:29;;;;;;;;;;;;;;;22.86;29.60;97561.50;4976394;28;994;-77
2021/10/16 00:44:16;;;;;;;;;;;;;;;22.61;30.24;97567.34;4960075;28;1180;-77
2021/10/16 00:46:42;;;;;;;;;;;;;;;22.53;30.13;97568.84;4976349;28;1172;-77
2021/10/16 00:49:07;;;;;;;;;;;;;;;22.49;30.40;97579.56;4943879;28;985;-77
2021/10/16 00:51:33;;;;;;;;;;;;;;;22.41;30.62;97555.53;4976128;28;1887;-77
2021/10/16 00:53:59;;;;;;;;;;;;;;;22.40;30.43;97543.41;4975806;28;905;-77
2021/10/16 00:56:24;;;;;;;;;;;;;;;22.39;30.26;97541.03;4958010;28;1335;-77
2021/10/16 00:58:50;;;;;;;;;;;;;;;22.34;30.38;97528.25;4956612;29;1617;-76
2021/10/16 01:01:15;;;;;;;;;;;;;;;22.47;30.30;97531.00;4902028;29;1154;-77
2021/10/16 01:03:41;;;;;;;;;;;;;;;22.34;30.50;97523.38;4918397;29;966;-77
2021/10/16 01:06:06;;;;;;;;;;;;;;;21.95;31.90;97540.97;4951908;29;973;-77
2021/10/16 01:08:32;;;;;;;;;;;;;;;22.41;31.34;97532.88;4921216;29;1223;-76
2021/10/16 01:10:58;;;;;;;;;;;;;;;22.48;31.17;97538.25;4880505;29;1914;-77
2021/10/16 01:13:26;;;;;;;;;;;;;;;22.75;30.42;97535.59;4862210;29;1127;-77
2021/10/16 01:15:51;;;;;;;;;;;;;;;23.09;30.13;97536.72;4850904;29;946;-77
2021/10/16 01:18:16;;;;;;;;;;;;;;;23.23;29.78;97524.81;4829060;29;1063;-78
2021/10/16 01:20:44;;;;;;;;;;;;;;;22.84;30.21;97521.44;4827070;29;953;-77
2021/10/16 01:23:10;;;;;;;;;;;;;;;23.32;29.70;97524.06;4829017;29;1241;-76
2021/10/16 01:25:35;;;;;;;;;;;;;;;22.93;29.39;97477.41;4847215;29;1291;-76
2021/10/16 01:28:01;;;;;;;;;;;;;;;23.03;29.75;97532.94;4792705;30;1100;-76
2021/10/16 01:30:26;;;;;;;;;;;;;;;22.84;30.08;97527.13;4773161;30;1198;-77
2021/10/16 01:32:51;;;;;;;;;;;;;;;22.64;29.94;97532.41;4807184;29;1982;-77
2021/10/16 01:35:17;;;;;;;;;;;;;;;22.52;30.15;97521.91;4829027;29;959;-76
2021/10/16 01:37:44;;;;;;;;;;;;;;;22.58;30.26;97537.06;4829028;29;818;-77
2021/10/16 01:40:11;;;;;;;;;;;;;;;22.41;30.36;97527.19;4850103;29;1237;-76
2021/10/16 01:42:41;;;;;;;;;;;;;;;22.29;30.41;97532.47;4865802;29;975;-77
2021/10/16 01:45:08;;;;;;;;;;;;;;;22.34;30.52;97529.03;4879702;29;1310;-77
2021/10/16 01:47:43;;;;;;;;;;;;;;;22.21;30.51;97531.13;4886797;29;1123;-77
2021/10/16 01:50:09;;;;;;;;;;;;;;;22.22;30.74;97520.59;4867530;29;1237;-77
2021/10/16 01:52:34;;;;;;;;;;;;;;;22.30;30.92;97521.91;4865604;29;1906;-76
2021/10/16 01:55:00;;;;;;;;;;;;;;;22.23;31.66;97522.19;4865329;29;1002;-77
2021/10/16 01:57:25;;;;;;;;;;;;;;;22.33;31.28;97524.63;4881544;29;1112;-77
2021/10/16 01:59:57;;;;;;;;;;;;;;;22.42;31.17;97523.09;4900369;29;1079;-76
2021/10/16 02:02:32;;;;;;;;;;;;;;;22.38;31.45;97517.56;4938792;29;967;-77
2021/10/16 02:05:30;;;;;;;;;;;;;;;23.00;30.00;97505.47;4921417;29;1008;-77
2021/10/16 02:08:14;;;;;;;;;;;;;;;22.65;30.97;97508.44;4921031;29;1030;-77
2021/10/16 02:10:40;;;;;;;;;;;;;;;22.68;30.68;97513.19;4915826;29;1069;-77
2021/10/16 02:13:06;;;;;;;;;;;;;;;23.11;29.94;97511.53;4902395;29;1899;-77
2021/10/16 02:15:38;;;;;;;;;;;;;;;22.88;30.18;97516.47;4901420;29;1318;-77
2021/10/16 02:18:20;;;;;;;;;;;;;;;22.73;30.27;97521.09;4920769;29;1130;-76
2021/10/16 02:20:46;;;;;;;;;;;;;;;22.65;30.10;97511.28;4931114;29;1236;-76
2021/10/16 02:23:11;;;;;;;;;;;;;;;22.67;30.09;97505.94;4972721;28;1118;-77
2021/10/16 02:25:38;;;;;;;;;;;;;;;22.50;30.36;97502.53;4978619;28;1341;-77
2021/10/16 02:28:04;;;;;;;;;;;;;;;22.31;30.63;97507.28;4962329;28;1363;-77
2021/10/16 02:30:30;;;;;;;;;;;;;;;22.50;30.20;97490.41;4946652;28;1461;-76
2021/10/16 02:32:56;;;;;;;;;;;;;;;22.45;30.64;97499.50;4978317;28;1911;-77
2021/10/16 02:35:22;;;;;;;;;;;;;;;22.39;30.50;97495.69;4962376;28;1148;-77
2021/10/16 02:37:47;;;;;;;;;;;;;;;22.30;30.77;97500.03;4962516;28;1151;-77
2021/10/16 02:40:13;;;;;;;;;;;;;;;22.28;30.75;97507.44;4964963;28;1151;-77
2021/10/16 02:42:40;;;;;;;;;;;;;;;22.38;30.64;97488.41;4981632;28;1133;-77
2021/10/16 02:45:05;;;;;;;;;;;;;;;22.41;30.77;97493.19;4981426;28;1227;-77
2021/10/16 02:47:33;;;;;;;;;;;;;;;22.20;31.78;97487.06;4981678;28;1242;-76
2021/10/16 02:49:59;;;;;;;;;;;;;;;22.02;31.95;97489.72;4995970;28;1406;-77
2021/10/16 02:52:25;;;;;;;;;;;;;;;22.62;30.95;97487.47;5033754;28;1906;-77
2021/10/16 02:54:50;;;;;;;;;;;;;;;22.34;31.63;97495.03;5016785;28;1033;-77
2021/10/16 02:57:16;;;;;;;;;;;;;;;23.00;30.50;97474.25;5017102;28;1378;-77
2021/10/16 02:59:41;;;;;;;;;;;;;;;23.06;30.24;97470.38;5017016;28;1358;-78
2021/10/16 03:02:07;;;;;;;;;;;;;;;23.17;30.20;97480.50;5038562;28;1157;-78
2021/10/16 03:04:32;;;;;;;;;;;;;;;23.35;29.90;97467.13;5036825;28;1218;-77
2021/10/16 03:06:59;;;;;;;;;;;;;;;23.30;29.51;97467.72;5020388;28;1059;-77
2021/10/16 03:09:27;;;;;;;;;;;;;;;23.05;29.65;97463.13;5036371;28;1183;-77
2021/10/16 03:11:52;;;;;;;;;;;;;;;22.59;30.26;97467.78;5036691;28;1898;-76
2021/10/16 03:14:18;;;;;;;;;;;;;;;22.72;30.27;97468.47;5036487;28;1197;-77
2021/10/16 03:16:49;;;;;;;;;;;;;;;22.71;30.04;97472.56;5020044;28;1100;-77
2021/10/16 03:19:15;;;;;;;;;;;;;;;22.63;30.30;97476.91;5000234;28;1116;-77
2021/10/16 03:21:50;;;;;;;;;;;;;;;22.49;30.53;97463.31;5000724;28;1120;-77
2021/10/16 03:24:26;;;;;;;;;;;;;;;22.40;30.85;97469.72;5000431;28;1190;-77
2021/10/16 03:26:51;;;;;;;;;;;;;;;22.32;30.88;97468.38;5000586;28;1205;-77
2021/10/16 03:29:17;;;;;;;;;;;;;;;22.51;30.60;97466.47;4999783;28;1247;-77
2021/10/16 03:31:42;;;;;;;;;;;;;;;22.42;31.44;97472.84;5000286;28;1966;-78
2021/10/16 03:34:08;;;;;;;;;;;;;;;22.53;31.47;97486.63;4999624;28;911;-77
2021/10/16 03:36:34;;;;;;;;;;;;;;;22.44;31.76;97480.91;5015586;28;964;-76
2021/10/16 03:38:59;;;;;;;;;;;;;;;22.66;31.36;97475.22;5016321;28;1189;-76
2021/10/16 03:41:25;;;;;;;;;;;;;;;23.00;30.86;97465.75;5016443;28;1134;-76
2021/10/16 03:43:51;;;;;;;;;;;;;;;22.61;31.34;97462.41;4999509;28;1657;-76
2021/10/16 03:46:16;;;;;;;;;;;;;;;22.66;31.60;97472.38;5016580;28;932;-76
2021/10/16 03:48:42;;;;;;;;;;;;;;;23.15;30.39;97472.44;4996234;28;1064;-75
2021/10/16 03:51:08;;;;;;;;;;;;;;;23.16;30.54;97467.53;4974483;28;1966;-76
2021/10/16 03:53:33;;;;;;;;;;;;;;;23.05;30.72;97474.47;4956987;29;1210;-75
2021/10/16 03:55:58;;;;;;;;;;;;;;;22.97;30.36;97466.72;4957765;29;1225;-76
2021/10/16 03:58:24;;;;;;;;;;;;;;;22.83;30.26;97465.97;4919474;29;1316;-75
2021/10/16 04:00:52;;;;;;;;;;;;;;;22.72;30.31;97464.84;4904144;29;1304;-76
2021/10/16 04:03:18;;;;;;;;;;;;;;;22.53;30.70;97461.09;4903823;29;1450;-76
2021/10/16 04:05:45;;;;;;;;;;;;;;;22.45;30.96;97454.16;4903897;29;1273;-75
2021/10/16 04:08:10;;;;;;;;;;;;;;;22.31;30.96;97467.59;4903454;29;1316;-76
2021/10/16 04:10:36;;;;;;;;;;;;;;;22.36;31.08;97469.84;4903958;29;1050;-76
2021/10/16 04:13:02;;;;;;;;;;;;;;;22.41;30.85;97464.81;4884164;29;1974;-76
2021/10/16 04:15:28;;;;;;;;;;;;;;;22.36;30.74;97475.50;4847099;29;1274;-75
2021/10/16 04:17:54;;;;;;;;;;;;;;;22.32;30.80;97474.84;4843499;29;1257;-75
2021/10/16 04:20:21;;;;;;;;;;;;;;;22.32;30.79;97474.06;4872613;29;1060;-76
2021/10/16 04:22:50;;;;;;;;;;;;;;;22.21;30.86;97471.63;4850782;29;1304;-76
2021/10/16 04:25:16;;;;;;;;;;;;;;;21.99;32.28;97473.66;4862405;29;885;-75
2021/10/16 04:27:43;;;;;;;;;;;;;;;22.38;31.60;97477.88;4829562;29;1651;-76
2021/10/16 04:30:23;;;;;;;;;;;;;;;22.29;31.81;97470.13;4851516;29;1442;-76
2021/10/16 04:32:49;;;;;;;;;;;;;;;22.80;31.27;97475.44;4896531;29;1919;-76
2021/10/16 04:35:15;;;;;;;;;;;;;;;22.70;30.92;97470.97;4881321;29;1033;-76
2021/10/16 04:37:40;;;;;;;;;;;;;;;23.04;30.28;97472.06;4881053;29;1562;-76
2021/10/16 04:40:13;;;;;;;;;;;;;;;23.20;29.92;97473.84;4881041;29;963;-76
2021/10/16 04:42:40;;;;;;;;;;;;;;;23.04;30.27;97466.41;4862556;29;1228;-76
2021/10/16 04:45:06;;;;;;;;;;;;;;;22.67;30.75;97471.91;4862209;29;1535;-76
2021/10/16 04:47:32;;;;;;;;;;;;;;;22.93;30.35;97466.06;4881226;29;1131;-77
2021/10/16 04:49:58;;;;;;;;;;;;;;;22.71;30.24;97466.88;4862133;29;1066;-75
2021/10/16 04:52:24;;;;;;;;;;;;;;;22.71;30.12;97466.88;4831110;29;1911;-76
2021/10/16 04:54:49;;;;;;;;;;;;;;;22.36;30.91;97469.84;4825633;29;1299;-76
2021/10/16 04:57:15;;;;;;;;;;;;;;;22.57;30.31;97473.09;4825918;29;944;-76
2021/10/16 04:59:40;;;;;;;;;;;;;;;22.44;30.50;97467.53;4843256;29;1397;-76
2021/10/16 05:02:06;;;;;;;;;;;;;;;22.50;30.53;97467.72;4846957;29;1345;-75
2021/10/16 05:04:33;;;;;;;;;;;;;;;22.40;30.55;97458.38;4837289;29;1286;-76
2021/10/16 05:07:00;;;;;;;;;;;;;;;22.36;30.70;97466.22;4843503;29;1164;-75
2021/10/16 05:09:26;;;;;;;;;;;;;;;22.31;30.74;97467.59;4828431;29;1095;-76
2021/10/16 05:11:52;;;;;;;;;;;;;;;22.27;30.58;97475.44;4858794;29;1914;-76
2021/10/16 05:14:17;;;;;;;;;;;;;;;22.43;31.04;97485.00;4843861;29;1207;-75
2021/10/16 05:16:43;;;;;;;;;;;;;;;21.61;33.12;97483.09;4811808;29;1382;-76
2021/10/16 05:19:09;;;;;;;;;;;;;;;21.98;32.46;97480.56;4809863;29;1242;-76
2021/10/16 05:21:35;;;;;;;;;;;;;;;22.72;30.86;97479.00;4825596;29;1271;-76
2021/10/16 05:24:01;;;;;;;;;;;;;;;22.46;31.35;97478.41;4852825;29;1150;-76
2021/10/16 05:26:27;;;;;;;;;;;;;;;22.27;31.83;97477.50;4865277;29;1117;-76
2021/10/16 05:28:55;;;;;;;;;;;;;;;23.04;30.58;97486.25;4898981;29;1234;-76
2021/10/16 05:31:21;;;;;;;;;;;;;;;22.91;30.78;97491.28;4899392;29;1910;-76
2021/10/16 05:33:47;;;;;;;;;;;;;;;23.10;30.15;97487.22;4883464;29;1126;-76
2021/10/16 05:36:12;;;;;;;;;;;;;;;22.86;30.21;97490.59;4917811;29;1368;-76
2021/10/16 05:38:38;;;;;;;;;;;;;;;22.86;29.92;97496.25;4873435;29;1094;-75
2021/10/16 05:41:03;;;;;;;;;;;;;;;22.74;30.25;97494.31;4861889;29;1332;-76
2021/10/16 05:43:29;;;;;;;;;;;;;;;22.59;30.48;97487.63;4863440;29;957;-76
2021/10/16 05:45:58;;;;;;;;;;;;;;;22.56;30.19;97505.56;4895682;29;1186;-75
2021/10/16 05:48:24;;;;;;;;;;;;;;;22.46;30.13;97501.09;4915613;29;1033;-76
2021/10/16 05:50:52;;;;;;;;;;;;;;;22.42;30.62;97495.53;4917774;29;1199;-76
2021/10/16 05:53:17;;;;;;;;;;;;;;;22.26;30.65;97502.22;4917555;29;1903;-76
2021/10/16 05:55:43;;;;;;;;;;;;;;;22.25;30.84;97509.13;4899120;29;1082;-76
2021/10/16 05:58:08;;;;;;;;;;;;;;;22.32;30.43;97503.19;4898623;29;1675;-75
2021/10/16 06:00:34;;;;;;;;;;;;;;;22.12;30.66;97499.88;4901198;29;1108;-77
2021/10/16 06:03:00;;;;;;;;;;;;;;;22.34;30.88;97502.75;4902615;29;1114;-76
2021/10/16 06:05:48;;;;;;;;;;;;;;;22.14;31.89;97503.06;4907805;29;1385;-77
2021/10/16 06:08:14;;;;;;;;;;;;;;;22.04;31.96;97504.22;4938779;29;1116;-76
2021/10/16 06:10:39;;;;;;;;;;;;;;;22.15;31.61;97510.31;4940388;29;947;-77
2021/10/16 06:13:07;;;;;;;;;;;;;;;21.96;31.94;97505.72;4940332;29;1910;-77
2021/10/16 06:15:33;;;;;;;;;;;;;;;22.82;30.53;97501.28;4940418;29;1257;-75
2021/10/16 06:17:59;;;;;;;;;;;;;;;22.67;30.60;97497.41;4939881;29;1185;-77
2021/10/16 06:20:30;;;;;;;;;;;;;;;22.51;30.96;97506.16;4902073;29;1188;-76
2021/10/16 06:22:56;;;;;;;;;;;;;;;23.07;30.07;97493.84;4938500;29;1102;-76
2021/10/16 06:25:21;;;;;;;;;;;;;;;22.78;30.43;97505.50;4939967;29;1256;-76
2021/10/16 06:27:47;;;;;;;;;;;;;;;22.78;30.18;97500.63;4924902;29;1203;-77
2021/10/16 06:30:13;;;;;;;;;;;;;;;22.74;30.18;97500.00;4959102;29;1723;-75
2021/10/16 06:32:39;;;;;;;;;;;;;;;22.56;30.27;97506.34;4939814;29;1981;-76
2021/10/16 06:35:06;;;;;;;;;;;;;;;22.52;30.17;97502.06;4898689;29;1151;-76
2021/10/16 06:37:32;;;;;;;;;;;;;;;22.40;30.51;97506.56;4880275;29;1176;-76
2021/10/16 06:39:58;;;;;;;;;;;;;;;22.60;30.39;97511.88;4879983;29;1285;-76
2021/10/16 06:42:25;;;;;;;;;;;;;;;22.51;30.48;97514.66;4864912;29;1362;-76
2021/10/16 06:45:14;;;;;;;;;;;;;;;22.41;30.59;97510.19;4839994;29;1299;-76
2021/10/16 06:48:15;;;;;;;;;;;;;;;22.39;30.47;97509.88;4845629;29;1000;-77
2021/10/16 06:51:00;;;;;;;;;;;;;;;22.39;30.32;97507.03;4816580;29;1179;-76
2021/10/16 06:53:27;;;;;;;;;;;;;;;22.33;30.38;97510.47;4790993;29;1916;-76
2021/10/16 06:55:53;;;;;;;;;;;;;;;22.25;30.64;97514.00;4791561;29;1282;-76
2021/10/16 06:58:20;;;;;;;;;;;;;;;22.20;30.65;97509.72;4827301;29;1325;-77
2021/10/16 07:00:46;;;;;;;;;;;;;;;22.07;31.99;97523.13;4791592;29;1279;-76
2021/10/16 07:03:30;;;;;;;;;;;;;;;22.17;31.93;97518.34;4816609;29;950;-77
2021/10/16 07:05:56;;;;;;;;;;;;;;;21.74;32.37;97514.97;4807085;29;1176;-76
2021/10/16 07:08:25;;;;;;;;;;;;;;;22.05;32.05;97511.47;4818731;29;1081;-77
2021/10/16 07:10:50;;;;;;;;;;;;;;;22.18;32.02;97519.94;4844699;29;1005;-77
2021/10/16 07:13:16;;;;;;;;;;;;;;;22.52;31.18;97513.41;4900582;29;1977;-76
2021/10/16 07:15:41;;;;;;;;;;;;;;;22.63;30.88;97510.94;4901219;29;1060;-76
2021/10/16 07:18:07;;;;;;;;;;;;;;;22.94;29.98;97507.34;4901001;29;1252;-76
2021/10/16 07:20:32;;;;;;;;;;;;;;;23.34;29.68;97513.03;4901062;29;1041;-76
2021/10/16 07:22:58;;;;;;;;;;;;;;;23.22;29.28;97509.03;4855949;29;939;-77
2021/10/16 07:25:23;;;;;;;;;;;;;;;23.03;29.52;97516.69;4863929;29;975;-77
2021/10/16 07:27:51;;;;;;;;;;;;;;;22.80;29.99;97520.81;4879298;29;1017;-77
2021/10/16 07:30:17;;;;;;;;;;;;;;;22.67;29.73;97522.16;4913994;29;1285;-76
2021/10/16 07:32:42;;;;;;;;;;;;;;;22.59;29.97;97510.31;4920302;29;1922;-77
2021/10/16 07:35:09;;;;;;;;;;;;;;;22.57;30.19;97518.47;4920143;29;1130;-77
2021/10/16 07:37:34;;;;;;;;;;;;;;;22.55;30.20;97521.00;4904442;29;1496;-76
2021/10/16 07:40:00;;;;;;;;;;;;;;;22.35;30.26;97516.44;4934360;29;1025;-76
2021/10/16 07:42:25;;;;;;;;;;;;;;;22.42;30.45;97514.59;4919877;29;1007;-78
2021/10/16 07:44:51;;;;;;;;;;;;;;;22.43;30.22;97519.00;4952192;28;1063;-76
2021/10/16 07:47:16;;;;;;;;;;;;;;;22.30;30.47;97510.59;4996693;28;913;-77
2021/10/16 07:49:42;;;;;;;;;;;;;;;22.10;31.10;97513.72;4996298;28;836;-77
2021/10/16 07:52:07;;;;;;;;;;;;;;;22.06;31.70;97524.38;5003652;28;1895;-76
2021/10/16 07:54:33;;;;;;;;;;;;;;;22.26;31.36;97521.25;5015376;28;1226;-77
2021/10/16 07:57:01;;;;;;;;;;;;;;;22.76;30.52;97514.50;5031821;28;1352;-76
2021/10/16 07:59:27;;;;;;;;;;;;;;;23.02;30.09;97522.84;5014826;28;1336;-76
2021/10/16 08:01:53;;;;;;;;;;;;;;;22.78;30.34;97517.66;5015609;28;1269;-76
2021/10/16 08:04:18;;;;;;;;;;;;;;;23.01;30.05;97519.22;5032119;28;1282;-76
2021/10/16 08:06:44;;;;;;;;;;;;;;;22.61;30.67;97524.81;5020648;28;970;-76
2021/10/16 08:09:09;;;;;;;;;;;;;;;22.72;30.50;97522.34;5072325;28;1211;-76
2021/10/16 08:11:46;;;;;;;;;;;;;;;22.84;29.95;97518.63;5055669;28;1901;-76
2021/10/16 08:14:11;;;;;;;;;;;;;;;22.88;29.64;97524.97;5057115;28;974;-76
2021/10/16 08:16:37;;;;;;;;;;;;;;;22.75;29.68;97512.91;5058142;28;1063;-76
2021/10/16 08:19:02;;;;;;;;;;;;;;;22.51;30.11;97520.31;5057280;28;1085;-76
2021/10/16 08:21:28;;;;;;;;;;;;;;;22.32;30.53;97520.19;5058365;28;953;-76
2021/10/16 08:23:53;;;;;;;;;;;;;;;22.42;30.17;97512.53;5057270;28;917;-76
2021/10/16 08:26:19;;;;;;;;;;;;;;;22.46;30.33;97518.88;5058029;28;870;-76
2021/10/16 08:28:44;;;;;;;;;;;;;;;22.46;30.16;97516.03;5057281;28;922;-76
2021/10/16 08:31:10;;;;;;;;;;;;;;;22.43;30.23;97514.13;5057954;28;841;-76
2021/10/16 08:33:37;;;;;;;;;;;;;;;22.35;30.23;97519.28;5057189;28;1902;-76
2021/10/16 08:36:03;;;;;;;;;;;;;;;22.54;29.90;97516.59;5057891;28;856;-76
2021/10/16 08:38:29;;;;;;;;;;;;;;;22.21;30.85;97514.13;5057126;28;1142;-76
2021/10/16 08:40:54;;;;;;;;;;;;;;;22.04;32.09;97518.38;5057618;28;896;-76
2021/10/16 08:43:19;;;;;;;;;;;;;;;22.04;31.86;97518.38;5056747;28;918;-76
2021/10/16 08:45:45;;;;;;;;;;;;;;;22.30;31.51;97525.53;5057205;28;963;-76
2021/10/16 08:48:11;;;;;;;;;;;;;;;22.93;30.36;97534.94;5014882;28;1168;-76
2021/10/16 08:50:36;;;;;;;;;;;;;;;22.43;31.11;97524.69;5015523;28;1047;-76
2021/10/16 08:53:02;;;;;;;;;;;;;;;22.83;30.33;97525.56;5015292;28;1991;-76
2021/10/16 08:55:27;;;;;;;;;;;;;;;22.53;30.83;97529.16;5015768;28;1084;-76
2021/10/16 08:57:53;;;;;;;;;;;;;;;23.16;29.57;97530.78;5015258;28;996;-76
2021/10/16 09:00:36;;;;;;;;;;;;;;;22.77;30.08;97533.09;5015456;28;970;-77
2021/10/16 09:03:15;;;;;;;;;;;;;;;22.55;30.30;97532.34;5015083;28;961;-76
2021/10/16 09:05:40;;;;;;;;;;;;;;;22.45;30.20;97539.19;5015390;28;997;-76
2021/10/16 09:08:06;;;;;;;;;;;;;;;22.41;30.59;97535.69;5014746;28;1069;-75
2021/10/16 09:10:31;;;;;;;;;;;;;;;22.30;30.79;97534.03;5015751;28;988;-76
2021/10/16 09:12:57;;;;;;;;;;;;;;;22.41;30.42;97532.88;5015299;28;1989;-76
2021/10/16 09:15:22;;;;;;;;;;;;;;;22.50;30.26;97541.44;5015620;28;978;-76
2021/10/16 09:18:20;;;;;;;;;;;;;;;22.51;30.33;97537.34;5014851;28;1061;-76
2021/10/16 09:20:45;;;;;;;;;;;;;;;22.41;30.22;97539.31;4995712;28;1067;-76
2021/10/16 09:23:12;;;;;;;;;;;;;;;22.33;30.33;97533.13;4979282;28;992;-76
2021/10/16 09:25:37;;;;;;;;;;;;;;;22.58;30.25;97537.06;4995264;28;900;-76
2021/10/16 09:28:15;;;;;;;;;;;;;;;22.27;31.50;97540.63;4995555;28;1006;-76
2021/10/16 09:30:47;;;;;;;;;;;;;;;22.29;31.50;97532.47;4979408;28;952;-75
2021/10/16 09:33:12;;;;;;;;;;;;;;;22.42;31.39;97531.59;4994489;28;1887;-75
2021/10/16 09:35:38;;;;;;;;;;;;;;;22.65;31.08;97530.34;4997609;28;842;-76
2021/10/16 09:38:03;;;;;;;;;;;;;;;22.84;30.41;97532.00;4998761;28;1100;-76
2021/10/16 09:40:38;;;;;;;;;;;;;;;22.83;30.71;97531.22;4999277;28;932;-76
2021/10/16 09:43:17;;;;;;;;;;;;;;;23.24;30.05;97532.06;4999034;28;961;-76
2021/10/16 09:45:42;;;;;;;;;;;;;;;23.22;29.53;97550.84;4998984;28;998;-76
2021/10/16 09:48:10;;;;;;;;;;;;;;;22.86;30.10;97544.50;4998964;28;999;-76
2021/10/16 09:50:35;;;;;;;;;;;;;;;22.63;30.46;97533.63;4984228;28;1034;-76
2021/10/16 09:53:01;;;;;;;;;;;;;;;22.50;30.58;97542.22;4998652;28;1918;-76
2021/10/16 09:55:27;;;;;;;;;;;;;;;22.39;30.74;97535.38;5006833;28;1028;-76
2021/10/16 09:57:52;;;;;;;;;;;;;;;22.46;30.71;97535.09;5060406;28;941;-77
2021/10/16 10:00:18;;;;;;;;;;;;;;;22.45;30.51;97533.53;5058217;28;925;-76
2021/10/16 10:02:49;;;;;;;;;;;;;;;22.44;30.77;97532.75;5058694;28;990;-76
2021/10/16 10:05:15;;;;;;;;;;;;;;;22.43;30.44;97536.00;5057770;28;1437;-76
2021/10/16 10:07:40;;;;;;;;;;;;;;;22.36;30.50;97531.41;5018596;28;974;-75
2021/10/16 10:10:06;;;;;;;;;;;;;;;22.47;30.43;97542.34;5018096;28;1082;-76
2021/10/16 10:12:33;;;;;;;;;;;;;;;22.33;30.78;97533.13;5002384;28;1914;-76
2021/10/16 10:14:58;;;;;;;;;;;;;;;21.85;31.27;97526.72;5017799;28;1864;-76
2021/10/16 10:17:23;;;;;;;;;;;;;;;22.22;31.58;97535.53;5018386;28;1088;-76
2021/10/16 10:19:54;;;;;;;;;;;;;;;22.21;32.06;97531.13;5017698;28;1152;-76
2021/10/16 10:22:20;;;;;;;;;;;;;;;22.33;31.55;97538.81;5018046;28;954;-75
2021/10/16 10:24:50;;;;;;;;;;;;;;;23.00;30.61;97533.84;5017705;28;985;-76
2021/10/16 10:27:16;;;;;;;;;;;;;;;22.71;31.01;97539.84;5018032;28;1026;-76
2021/10/16 10:29:43;;;;;;;;;;;;;;;23.00;30.63;97523.31;5017827;28;906;-76
2021/10/16 10:32:20;;;;;;;;;;;;;;;22.99;30.29;97533.06;5052001;28;1906;-76
2021/10/16 10:34:57;;;;;;;;;;;;;;;23.18;30.06;97516.13;5056928;28;923;-76
2021/10/16 10:37:52;;;;;;;;;;;;;;;23.17;29.83;97525.91;5057689;28;942;-76
2021/10/16 10:40:19;;;;;;;;;;;;;;;22.78;30.30;97528.19;4978456;28;1085;-76
2021/10/16 10:42:51;;;;;;;;;;;;;;;22.56;30.53;97531.06;4939589;29;987;-76
2021/10/16 10:45:23;;;;;;;;;;;;;;;22.32;30.99;97520.19;4939683;29;1009;-76
2021/10/16 10:48:15;;;;;;;;;;;;;;;22.62;30.42;97520.72;4940040;29;899;-76
2021/10/16 10:50:41;;;;;;;;;;;;;;;22.47;30.64;97511.94;4902038;29;1006;-76
2021/10/16 10:53:09;;;;;;;;;;;;;;;22.41;30.49;97510.97;4901830;29;1926;-76
2021/10/16 10:55:53;;;;;;;;;;;;;;;22.43;30.65;97502.00;4902426;29;916;-76
2021/10/16 10:58:19;;;;;;;;;;;;;;;22.39;30.86;97504.19;4901365;29;1071;-76
2021/10/16 11:00:44;;;;;;;;;;;;;;;22.34;30.73;97500.69;4902192;29;1057;-77
2021/10/16 11:03:28;;;;;;;;;;;;;;;22.31;30.86;97490.28;4888698;29;1032;-77
2021/10/16 11:05:55;;;;;;;;;;;;;;;22.32;30.75;97485.41;4865388;29;1046;-76
2021/10/16 11:08:20;;;;;;;;;;;;;;;22.39;30.67;97478.69;4879455;29;1093;-77
2021/10/16 11:10:46;;;;;;;;;;;;;;;21.71;32.62;97481.94;4879955;29;905;-76
2021/10/16 11:13:16;;;;;;;;;;;;;;;22.00;32.69;97489.38;4868935;29;1923;-77
2021/10/16 11:15:41;;;;;;;;;;;;;;;22.63;31.20;97493.94;4882934;29;1127;-76
2021/10/16 11:18:15;;;;;;;;;;;;;;;22.45;31.56;97493.84;4953931;29;1039;-77
2021/10/16 11:20:41;;;;;;;;;;;;;;;22.67;31.30;97471.91;4958960;29;944;-77
2021/10/16 11:23:07;;;;;;;;;;;;;;;22.79;30.91;97473.84;4958244;28;994;-76
2021/10/16 11:25:33;;;;;;;;;;;;;;;22.81;30.97;97482.69;4974885;28;958;-76
2021/10/16 11:28:04;;;;;;;;;;;;;;;22.97;30.57;97475.22;4985993;28;894;-77
2021/10/16 11:30:29;;;;;;;;;;;;;;;22.93;30.23;97477.41;4997218;28;1038;-77
2021/10/16 11:32:58;;;;;;;;;;;;;;;22.75;30.76;97473.22;4997082;28;1910;-77
2021/10/16 11:35:24;;;;;;;;;;;;;;;22.62;30.80;97476.13;5040762;28;983;-77
2021/10/16 11:37:49;;;;;;;;;;;;;;;22.56;30.63;97480.03;5058924;28;938;-76
2021/10/16 11:40:18;;;;;;;;;;;;;;;22.48;30.74;97485.19;5058536;28;875;-76
2021/10/16 11:42:51;;;;;;;;;;;;;;;22.42;30.85;97477.75;5041111;28;1103;-77
2021/10/16 11:45:18;;;;;;;;;;;;;;;22.36;30.96;97481.19;5040563;28;909;-77
2021/10/16 11:47:44;;;;;;;;;;;;;;;22.22;30.90;97481.72;5040300;28;1045;-77
2021/10/16 11:50:11;;;;;;;;;;;;;;;22.43;30.42;97487.81;5058288;28;1075;-76
2021/10/16 11:52:36;;;;;;;;;;;;;;;22.30;30.86;97485.88;5041120;28;1917;-77
2021/10/16 11:55:17;;;;;;;;;;;;;;;22.25;30.70;97469.47;5040683;28;923;-76
2021/10/16 11:57:42;;;;;;;;;;;;;;;22.22;30.59;97481.72;5039953;28;1097;-76
2021/10/16 12:00:28;;;;;;;;;;;;;;;22.27;30.88;97483.16;5040812;28;959;-76
2021/10/16 12:02:54;;;;;;;;;;;;;;;21.94;32.09;97477.06;5057522;28;1087;-76
2021/10/16 12:05:20;;;;;;;;;;;;;;;22.20;32.14;97484.22;5040660;28;830;-77
2021/10/16 12:07:46;;;;;;;;;;;;;;;22.61;31.57;97482.28;5035223;28;1249;-77
2021/10/16 12:10:21;;;;;;;;;;;;;;;22.43;31.58;97479.31;5035265;28;1046;-76
2021/10/16 12:13:03;;;;;;;;;;;;;;;22.45;31.34;97476.81;5015203;28;1994;-76
2021/10/16 12:15:39;;;;;;;;;;;;;;;22.36;31.71;97480.38;4999528;28;985;-77
2021/10/16 12:18:04;;;;;;;;;;;;;;;22.97;30.61;97483.72;4982668;28;1276;-77
2021/10/16 12:20:42;;;;;;;;;;;;;;;22.83;30.75;97497.19;5015719;28;1037;-76
2021/10/16 12:23:07;;;;;;;;;;;;;;;22.86;30.00;97487.75;4956688;29;987;-76
2021/10/16 12:25:41;;;;;;;;;;;;;;;22.77;30.00;97496.22;4941684;29;1090;-76
2021/10/16 12:28:07;;;;;;;;;;;;;;;22.66;30.08;97501.50;4940709;29;1118;-76
2021/10/16 12:30:32;;;;;;;;;;;;;;;22.61;30.25;97505.75;4957493;28;1066;-76
2021/10/16 12:33:10;;;;;;;;;;;;;;;22.44;30.61;97504.38;4918599;29;1907;-76
2021/10/16 12:35:35;;;;;;;;;;;;;;;22.38;30.61;97502.59;4903499;29;959;-76
2021/10/16 12:38:01;;;;;;;;;;;;;;;22.28;31.03;97496.88;4902908;29;958;-76
2021/10/16 12:40:36;;;;;;;;;;;;;;;22.01;31.29;97494.59;4903140;29;1014;-76
2021/10/16 12:43:01;;;;;;;;;;;;;;;22.50;30.35;97496.06;4941168;29;1017;-76
2021/10/16 12:45:39;;;;;;;;;;;;;;;22.30;30.93;97500.03;4941459;29;1027;-76
2021/10/16 12:48:26;;;;;;;;;;;;;;;22.21;31.11;97497.13;4956487;29;1223;-77
2021/10/16 12:50:52;;;;;;;;;;;;;;;22.27;30.91;97503.00;4957623;29;1230;-76
2021/10/16 12:53:18;;;;;;;;;;;;;;;22.32;31.47;97505.22;4962676;28;1980;-76
2021/10/16 12:55:43;;;;;;;;;;;;;;;22.05;32.34;97500.13;4996067;28;938;-77
2021/10/16 12:58:09;;;;;;;;;;;;;;;22.58;31.43;97503.03;4995290;28;933;-77
2021/10/16 13:00:35;;;;;;;;;;;;;;;22.56;31.60;97505.56;4995478;28;1112;-76
2021/10/16 13:03:02;;;;;;;;;;;;;;;22.87;31.00;97509.19;4999275;28;983;-77